Thompson, Missouri
Current Conditions -  °F | °C
As of 10:54 PM on Friday 24 Oct 2014 (Local Time) from KCOU Reporting Station
Clear Clear  
Wind Chill: 64°   Ceiling: Unl
Heat Index: 64°   Visibility: 10mi
Dew Point: 60°   Wind: 9mph
Humidity: 87%   Direction: 230°SW
Pressure: 30.01"   Gusts: NA
Location:  39.19°N, 91.98°W
Report Text: KCOU 250354Z AUTO 23008KT 10SM CLR 18/16 A3001 RMK AO2 SLP157 T01780156
Loading
Personal Weather Stations






























Interactive Weather Map
Tropical Storm Tracking
New forecast layout! Learn more

10-Day Weather Forecast

Advertisements
Track Severe Weather on mobile